sensor_id;sensor_type;location;lat;lon;timestamp;pressure;altitude;pressure_sealevel;temperature;humidity
36600;BME280;35385;55.668;37.508;2023-04-29T00:00:58;99072.91;;;4.94;100.00
36600;BME280;35385;55.668;37.508;2023-04-29T00:01:58;99073.25;;;4.90;100.00
36600;BME280;35385;55.668;37.508;2023-04-29T00:02:59;99029.81;;;4.54;100.00
36600;BME280;35385;55.668;37.508;2023-04-29T00:04:01;99075.75;;;4.79;100.00
36600;BME280;35385;55.668;37.508;2023-04-29T00:05:01;99063.06;;;4.58;100.00
36600;BME280;35385;55.668;37.508;2023-04-29T00:06:05;99075.00;;;4.77;100.00
36600;BME280;35385;55.668;37.508;2023-04-29T00:07:06;99071.00;;;4.71;100.00
36600;BME280;35385;55.668;37.508;2023-04-29T00:08:08;99087.53;;;4.75;100.00
36600;BME280;35385;55.668;37.508;2023-04-29T00:09:08;99029.50;;;4.46;100.00
36600;BME280;35385;55.668;37.508;2023-04-29T00:10:09;99077.06;;;4.86;100.00
36600;BME280;35385;55.668;37.508;2023-04-29T00:11:13;99081.19;;;4.90;100.00
36600;BME280;35385;55.668;37.508;2023-04-29T00:12:14;99079.59;;;5.00;100.00
36600;BME280;35385;55.668;37.508;2023-04-29T00:13:15;99040.41;;;4.80;100.00
36600;BME280;35385;55.668;37.508;2023-04-29T00:14:16;99059.78;;;4.93;100.00
36600;BME280;35385;55.668;37.508;2023-04-29T00:15:17;99072.63;;;4.99;100.00
36600;BME280;35385;55.668;37.508;2023-04-29T00:16:18;99065.63;;;4.98;100.00
36600;BME280;35385;55.668;37.508;2023-04-29T00:17:18;99049.84;;;4.84;100.00
36600;BME280;35385;55.668;37.508;2023-04-29T00:18:19;99070.72;;;5.01;100.00
36600;BME280;35385;55.668;37.508;2023-04-29T00:19:19;99080.00;;;5.07;100.00
36600;BME280;35385;55.668;37.508;2023-04-29T00:20:20;99089.34;;;5.12;100.00
36600;BME280;35385;55.668;37.508;2023-04-29T00:21:21;99022.34;;;4.74;100.00
36600;BME280;35385;55.668;37.508;2023-04-29T00:22:21;99013.22;;;4.52;100.00
36600;BME280;35385;55.668;37.508;2023-04-29T00:23:22;99068.69;;;4.92;100.00
36600;BME280;35385;55.668;37.508;2023-04-29T00:24:23;99011.75;;;4.74;100.00
36600;BME280;35385;55.668;37.508;2023-04-29T00:25:23;99062.34;;;4.94;100.00
36600;BME280;35385;55.668;37.508;2023-04-29T00:26:24;99072.16;;;4.92;100.00
36600;BME280;35385;55.668;37.508;2023-04-29T00:27:25;99067.97;;;4.90;100.00
36600;BME280;35385;55.668;37.508;2023-04-29T00:28:26;99055.25;;;4.82;100.00
36600;BME280;35385;55.668;37.508;2023-04-29T00:29:26;98981.25;;;4.30;100.00
36600;BME280;35385;55.668;37.508;2023-04-29T00:30:27;99049.84;;;4.84;100.00
36600;BME280;35385;55.668;37.508;2023-04-29T00:31:28;98993.09;;;4.50;100.00
36600;BME280;35385;55.668;37.508;2023-04-29T00:32:29;99055.78;;;4.75;100.00
36600;BME280;35385;55.668;37.508;2023-04-29T00:33:29;99040.72;;;4.62;100.00
36600;BME280;35385;55.668;37.508;2023-04-29T00:34:30;99045.41;;;4.72;100.00
36600;BME280;35385;55.668;37.508;2023-04-29T00:35:30;99046.34;;;4.71;100.00
36600;BME280;35385;55.668;37.508;2023-04-29T00:36:31;99029.09;;;4.65;100.00
36600;BME280;35385;55.668;37.508;2023-04-29T00:37:32;99046.16;;;4.74;100.00
36600;BME280;35385;55.668;37.508;2023-04-29T00:38:33;99041.66;;;4.49;100.00
36600;BME280;35385;55.668;37.508;2023-04-29T00:39:34;99052.69;;;4.55;100.00
36600;BME280;35385;55.668;37.508;2023-04-29T00:40:35;99037.97;;;4.64;100.00
36600;BME280;35385;55.668;37.508;2023-04-29T00:41:36;99058.84;;;4.81;100.00
36600;BME280;35385;55.668;37.508;2023-04-29T00:42:37;99049.31;;;4.79;100.00
36600;BME280;35385;55.668;37.508;2023-04-29T00:43:38;98996.28;;;4.42;100.00
36600;BME280;35385;55.668;37.508;2023-04-29T00:44:38;98999.66;;;4.44;100.00
36600;BME280;35385;55.668;37.508;2023-04-29T00:45:39;99026.97;;;4.70;100.00
36600;BME280;35385;55.668;37.508;2023-04-29T00:46:40;99033.13;;;4.71;100.00
36600;BME280;35385;55.668;37.508;2023-04-29T00:47:40;99038.31;;;4.59;100.00
36600;BME280;35385;55.668;37.508;2023-04-29T00:48:41;99032.56;;;4.66;100.00
36600;BME280;35385;55.668;37.508;2023-04-29T00:49:42;99045.16;;;4.62;100.00
36600;BME280;35385;55.668;37.508;2023-04-29T00:50:43;99039.06;;;4.61;100.00
36600;BME280;35385;55.668;37.508;2023-04-29T00:51:43;99049.41;;;4.77;100.00
36600;BME280;35385;55.668;37.508;2023-04-29T00:52:44;99058.53;;;4.73;100.00
36600;BME280;35385;55.668;37.508;2023-04-29T00:53:46;99023.47;;;4.57;100.00
36600;BME280;35385;55.668;37.508;2023-04-29T00:54:47;99038.72;;;4.79;100.00
36600;BME280;35385;55.668;37.508;2023-04-29T00:55:49;99032.91;;;4.74;100.00
36600;BME280;35385;55.668;37.508;2023-04-29T00:56:51;99045.41;;;4.84;100.00
36600;BME280;35385;55.668;37.508;2023-04-29T00:57:52;99042.75;;;4.84;100.00
36600;BME280;35385;55.668;37.508;2023-04-29T00:58:53;99036.72;;;4.82;100.00
36600;BME280;35385;55.668;37.508;2023-04-29T00:59:55;99049.31;;;4.91;100.00
36600;BME280;35385;55.668;37.508;2023-04-29T01:00:57;99046.56;;;4.93;100.00
36600;BME280;35385;55.668;37.508;2023-04-29T01:02:00;99018.72;;;4.87;100.00
36600;BME280;35385;55.668;37.508;2023-04-29T01:03:04;98989.31;;;4.67;100.00
36600;BME280;35385;55.668;37.508;2023-04-29T01:04:04;99049.84;;;4.96;100.00
36600;BME280;35385;55.668;37.508;2023-04-29T01:05:06;99004.66;;;4.74;100.00
36600;BME280;35385;55.668;37.508;2023-04-29T01:06:16;98989.75;;;4.60;100.00
36600;BME280;35385;55.668;37.508;2023-04-29T01:07:33;99045.09;;;4.89;100.00
36600;BME280;35385;55.668;37.508;2023-04-29T01:08:47;99025.94;;;4.85;100.00
36600;BME280;35385;55.668;37.508;2023-04-29T01:10:14;99026.88;;;4.84;100.00
36600;BME280;35385;55.668;37.508;2023-04-29T01:11:18;99032.69;;;4.77;100.00
36600;BME280;35385;55.668;37.508;2023-04-29T01:14:50;98984.97;;;4.53;100.00
36600;BME280;35385;55.668;37.508;2023-04-29T01:16:03;99046.66;;;4.91;100.00
36600;BME280;35385;55.668;37.508;2023-04-29T01:17:14;99043.59;;;4.85;100.00
36600;BME280;35385;55.668;37.508;2023-04-29T01:18:31;99038.31;;;4.85;100.00
36600;BME280;35385;55.668;37.508;2023-04-29T01:19:46;99048.16;;;4.83;100.00
36600;BME280;35385;55.668;37.508;2023-04-29T01:20:47;99054.50;;;4.80;100.00
36600;BME280;35385;55.668;37.508;2023-04-29T01:21:48;99054.94;;;4.61;100.00
36600;BME280;35385;55.668;37.508;2023-04-29T01:22:49;99024.63;;;4.53;100.00
36600;BME280;35385;55.668;37.508;2023-04-29T01:23:50;99055.63;;;4.63;100.00
36600;BME280;35385;55.668;37.508;2023-04-29T01:24:55;99051.94;;;4.66;100.00
36600;BME280;35385;55.668;37.508;2023-04-29T01:25:56;99052.16;;;4.63;100.00
36600;BME280;35385;55.668;37.508;2023-04-29T01:26:58;99053.44;;;4.70;100.00
36600;BME280;35385;55.668;37.508;2023-04-29T01:29:41;99059.13;;;4.64;100.00
36600;BME280;35385;55.668;37.508;2023-04-29T01:31:45;98988.94;;;4.33;100.00
36600;BME280;35385;55.668;37.508;2023-04-29T01:39:14;99039.53;;;4.41;100.00
36600;BME280;35385;55.668;37.508;2023-04-29T01:40:25;99035.66;;;4.47;100.00
36600;BME280;35385;55.668;37.508;2023-04-29T01:41:33;98990.72;;;4.20;100.00
36600;BME280;35385;55.668;37.508;2023-04-29T01:42:39;99029.72;;;4.43;100.00
36600;BME280;35385;55.668;37.508;2023-04-29T01:43:46;99031.59;;;4.29;100.00
36600;BME280;35385;55.668;37.508;2023-04-29T01:44:50;99032.06;;;4.21;100.00
36600;BME280;35385;55.668;37.508;2023-04-29T01:45:52;99040.44;;;4.15;100.00
36600;BME280;35385;55.668;37.508;2023-04-29T01:46:55;99019.69;;;4.09;100.00
36600;BME280;35385;55.668;37.508;2023-04-29T01:47:56;99031.69;;;4.27;100.00
36600;BME280;35385;55.668;37.508;2023-04-29T01:48:58;99003.78;;;3.96;100.00
36600;BME280;35385;55.668;37.508;2023-04-29T01:49:58;99044.91;;;4.27;100.00
36600;BME280;35385;55.668;37.508;2023-04-29T01:50:59;98991.44;;;3.97;100.00
36600;BME280;35385;55.668;37.508;2023-04-29T01:52:00;99043.00;;;4.29;100.00
36600;BME280;35385;55.668;37.508;2023-04-29T01:53:01;99047.03;;;4.35;100.00
36600;BME280;35385;55.668;37.508;2023-04-29T01:54:01;99033.88;;;4.20;100.00
36600;BME280;35385;55.668;37.508;2023-04-29T01:55:04;99039.81;;;4.24;100.00
36600;BME280;35385;55.668;37.508;2023-04-29T01:56:06;99036.19;;;4.12;100.00
36600;BME280;35385;55.668;37.508;2023-04-29T01:57:07;99052.59;;;4.17;100.00
36600;BME280;35385;55.668;37.508;2023-04-29T01:58:09;99039.03;;;4.09;100.00
36600;BME280;35385;55.668;37.508;2023-04-29T01:59:10;99031.41;;;4.05;100.00
36600;BME280;35385;55.668;37.508;2023-04-29T02:00:11;99036.09;;;4.14;100.00
36600;BME280;35385;55.668;37.508;2023-04-29T02:01:11;98988.88;;;3.95;100.00
36600;BME280;35385;55.668;37.508;2023-04-29T02:02:13;99048.56;;;4.12;100.00
36600;BME280;35385;55.668;37.508;2023-04-29T02:03:20;99000.81;;;3.88;100.00
36600;BME280;35385;55.668;37.508;2023-04-29T02:04:21;99050.06;;;4.16;100.00
36600;BME280;35385;55.668;37.508;2023-04-29T02:05:21;99026.84;;;4.07;100.00
36600;BME280;35385;55.668;37.508;2023-04-29T02:06:22;99030.44;;;4.06;100.00
36600;BME280;35385;55.668;37.508;2023-04-29T02:07:23;99034.59;;;4.10;100.00
36600;BME280;35385;55.668;37.508;2023-04-29T02:08:24;99049.72;;;4.20;100.00
36600;BME280;35385;55.668;37.508;2023-04-29T02:09:24;99053.78;;;4.26;100.00
36600;BME280;35385;55.668;37.508;2023-04-29T02:10:26;99019.47;;;4.12;100.00
36600;BME280;35385;55.668;37.508;2023-04-29T02:11:27;99043.81;;;4.17;100.00
36600;BME280;35385;55.668;37.508;2023-04-29T02:12:27;98989.78;;;3.81;100.00
36600;BME280;35385;55.668;37.508;2023-04-29T02:13:28;98995.75;;;3.98;100.00
36600;BME280;35385;55.668;37.508;2023-04-29T02:14:29;99034.09;;;4.17;100.00
36600;BME280;35385;55.668;37.508;2023-04-29T02:15:35;99047.41;;;4.16;100.00
36600;BME280;35385;55.668;37.508;2023-04-29T02:16:35;99045.09;;;4.24;100.00
36600;BME280;35385;55.668;37.508;2023-04-29T02:17:36;98995.56;;;4.01;100.00
36600;BME280;35385;55.668;37.508;2023-04-29T02:18:37;98983.88;;;3.90;100.00
36600;BME280;35385;55.668;37.508;2023-04-29T02:19:38;99056.22;;;4.29;100.00
36600;BME280;35385;55.668;37.508;2023-04-29T02:20:38;99050.38;;;4.24;100.00
36600;BME280;35385;55.668;37.508;2023-04-29T02:21:39;99062.00;;;4.21;100.00
36600;BME280;35385;55.668;37.508;2023-04-29T02:22:39;99039.25;;;4.19;100.00
36600;BME280;35385;55.668;37.508;2023-04-29T02:23:40;99009.09;;;4.09;100.00
36600;BME280;35385;55.668;37.508;2023-04-29T02:24:40;99051.91;;;4.41;100.00
36600;BME280;35385;55.668;37.508;2023-04-29T02:25:41;99052.56;;;4.44;100.00
36600;BME280;35385;55.668;37.508;2023-04-29T02:26:42;99042.09;;;4.43;100.00
36600;BME280;35385;55.668;37.508;2023-04-29T02:27:42;99036.69;;;4.44;100.00
36600;BME280;35385;55.668;37.508;2023-04-29T02:28:43;99044.75;;;4.55;100.00
36600;BME280;35385;55.668;37.508;2023-04-29T02:29:44;99051.72;;;4.56;100.00
36600;BME280;35385;55.668;37.508;2023-04-29T02:30:44;99037.53;;;4.32;100.00
36600;BME280;35385;55.668;37.508;2023-04-29T02:31:45;99047.28;;;4.44;100.00
36600;BME280;35385;55.668;37.508;2023-04-29T02:32:45;99054.47;;;4.42;100.00
36600;BME280;35385;55.668;37.508;2023-04-29T02:33:46;98991.16;;;4.14;100.00
36600;BME280;35385;55.668;37.508;2023-04-29T02:34:47;99064.59;;;4.48;100.00
36600;BME280;35385;55.668;37.508;2023-04-29T02:35:48;99058.91;;;4.54;100.00
36600;BME280;35385;55.668;37.508;2023-04-29T02:36:49;98956.50;;;3.79;100.00
36600;BME280;35385;55.668;37.508;2023-04-29T02:37:49;99040.00;;;4.21;100.00
36600;BME280;35385;55.668;37.508;2023-04-29T02:38:50;99017.34;;;4.04;100.00
36600;BME280;35385;55.668;37.508;2023-04-29T02:39:53;99048.09;;;4.32;100.00
36600;BME280;35385;55.668;37.508;2023-04-29T02:40:53;99061.19;;;4.34;100.00
36600;BME280;35385;55.668;37.508;2023-04-29T02:41:54;99057.25;;;4.14;100.00
36600;BME280;35385;55.668;37.508;2023-04-29T02:42:55;99043.81;;;4.17;100.00
36600;BME280;35385;55.668;37.508;2023-04-29T02:43:56;99024.84;;;3.98;100.00
36600;BME280;35385;55.668;37.508;2023-04-29T02:44:57;99063.59;;;4.24;100.00
36600;BME280;35385;55.668;37.508;2023-04-29T02:45:57;99070.91;;;4.33;100.00
36600;BME280;35385;55.668;37.508;2023-04-29T02:46:59;99074.13;;;4.38;100.00
36600;BME280;35385;55.668;37.508;2023-04-29T02:48:00;99075.88;;;4.25;100.00
36600;BME280;35385;55.668;37.508;2023-04-29T02:49:01;99072.38;;;4.24;100.00
36600;BME280;35385;55.668;37.508;2023-04-29T02:50:02;99092.53;;;4.40;100.00
36600;BME280;35385;55.668;37.508;2023-04-29T02:51:03;99089.69;;;4.43;100.00
36600;BME280;35385;55.668;37.508;2023-04-29T02:52:04;99084.41;;;4.43;100.00
36600;BME280;35385;55.668;37.508;2023-04-29T02:53:05;99078.34;;;4.41;100.00
36600;BME280;35385;55.668;37.508;2023-04-29T02:54:06;99105.84;;;4.38;100.00
36600;BME280;35385;55.668;37.508;2023-04-29T02:55:07;99086.38;;;4.39;100.00
36600;BME280;35385;55.668;37.508;2023-04-29T02:56:08;99040.16;;;4.05;100.00
36600;BME280;35385;55.668;37.508;2023-04-29T02:57:09;99093.38;;;4.40;100.00
36600;BME280;35385;55.668;37.508;2023-04-29T02:58:10;99108.19;;;4.43;100.00
36600;BME280;35385;55.668;37.508;2023-04-29T02:59:10;99103.34;;;4.49;100.00
36600;BME280;35385;55.668;37.508;2023-04-29T03:00:11;99096.25;;;4.50;100.00
36600;BME280;35385;55.668;37.508;2023-04-29T03:01:12;99094.88;;;4.44;100.00
36600;BME280;35385;55.668;37.508;2023-04-29T03:02:12;99110.97;;;4.54;100.00
36600;BME280;35385;55.668;37.508;2023-04-29T03:03:14;99067.50;;;4.18;100.00
36600;BME280;35385;55.668;37.508;2023-04-29T03:04:15;99101.88;;;4.45;100.00
36600;BME280;35385;55.668;37.508;2023-04-29T03:05:15;99117.84;;;4.56;100.00
36600;BME280;35385;55.668;37.508;2023-04-29T03:06:16;99039.78;;;4.11;100.00
36600;BME280;35385;55.668;37.508;2023-04-29T03:07:16;99100.69;;;4.49;100.00
36600;BME280;35385;55.668;37.508;2023-04-29T03:08:17;99121.78;;;4.63;100.00
36600;BME280;35385;55.668;37.508;2023-04-29T03:09:18;99116.56;;;4.49;100.00
36600;BME280;35385;55.668;37.508;2023-04-29T03:10:20;99122.59;;;4.51;100.00
36600;BME280;35385;55.668;37.508;2023-04-29T03:11:21;99108.00;;;4.46;100.00
36600;BME280;35385;55.668;37.508;2023-04-29T03:12:24;99119.19;;;4.49;100.00
36600;BME280;35385;55.668;37.508;2023-04-29T03:13:24;99106.69;;;4.39;100.00
36600;BME280;35385;55.668;37.508;2023-04-29T03:14:25;99118.69;;;4.44;100.00
36600;BME280;35385;55.668;37.508;2023-04-29T03:15:26;99120.28;;;4.47;100.00
36600;BME280;35385;55.668;37.508;2023-04-29T03:16:26;99102.91;;;4.43;100.00
36600;BME280;35385;55.668;37.508;2023-04-29T03:17:28;99125.78;;;4.56;100.00
36600;BME280;35385;55.668;37.508;2023-04-29T03:18:29;99137.25;;;4.70;100.00
36600;BME280;35385;55.668;37.508;2023-04-29T03:19:29;99141.06;;;4.78;100.00
36600;BME280;35385;55.668;37.508;2023-04-29T03:20:30;99135.16;;;4.75;100.00
36600;BME280;35385;55.668;37.508;2023-04-29T03:21:31;99135.16;;;4.75;100.00
36600;BME280;35385;55.668;37.508;2023-04-29T03:22:33;99137.47;;;4.79;100.00
36600;BME280;35385;55.668;37.508;2023-04-29T03:23:34;99130.59;;;4.77;100.00
36600;BME280;35385;55.668;37.508;2023-04-29T03:24:34;99093.25;;;4.29;100.00
36600;BME280;35385;55.668;37.508;2023-04-29T03:25:35;99144.41;;;4.55;100.00
36600;BME280;35385;55.668;37.508;2023-04-29T03:26:36;99145.47;;;4.65;100.00
36600;BME280;35385;55.668;37.508;2023-04-29T03:27:36;99165.38;;;4.58;100.00
36600;BME280;35385;55.668;37.508;2023-04-29T03:28:37;99101.84;;;4.18;100.00
36600;BME280;35385;55.668;37.508;2023-04-29T03:29:38;99146.06;;;4.43;100.00
36600;BME280;35385;55.668;37.508;2023-04-29T03:30:39;99092.41;;;4.02;100.00
36600;BME280;35385;55.668;37.508;2023-04-29T03:31:39;99144.94;;;4.33;100.00
36600;BME280;35385;55.668;37.508;2023-04-29T03:32:40;99103.31;;;4.10;100.00
36600;BME280;35385;55.668;37.508;2023-04-29T03:33:40;99115.06;;;4.18;100.00
36600;BME280;35385;55.668;37.508;2023-04-29T03:34:41;99093.16;;;4.04;100.00
36600;BME280;35385;55.668;37.508;2023-04-29T03:35:41;99173.47;;;4.42;100.00
36600;BME280;35385;55.668;37.508;2023-04-29T03:36:42;99162.13;;;4.40;100.00
36600;BME280;35385;55.668;37.508;2023-04-29T03:37:42;99150.69;;;4.40;100.00
36600;BME280;35385;55.668;37.508;2023-04-29T03:38:43;99173.56;;;4.41;100.00
36600;BME280;35385;55.668;37.508;2023-04-29T03:39:44;99169.91;;;4.29;100.00
36600;BME280;35385;55.668;37.508;2023-04-29T03:40:45;99184.03;;;4.42;100.00
36600;BME280;35385;55.668;37.508;2023-04-29T03:41:46;99173.47;;;4.42;100.00
36600;BME280;35385;55.668;37.508;2023-04-29T03:42:47;99107.09;;;4.06;100.00
36600;BME280;35385;55.668;37.508;2023-04-29T03:43:47;99171.47;;;4.46;100.00
36600;BME280;35385;55.668;37.508;2023-04-29T03:44:48;99180.84;;;4.37;100.00
36600;BME280;35385;55.668;37.508;2023-04-29T03:45:48;99184.75;;;4.32;100.00
36600;BME280;35385;55.668;37.508;2023-04-29T03:46:49;99175.88;;;4.18;100.00
36600;BME280;35385;55.668;37.508;2023-04-29T03:47:49;99171.72;;;4.29;100.00
36600;BME280;35385;55.668;37.508;2023-04-29T03:48:51;99173.22;;;4.18;100.00
36600;BME280;35385;55.668;37.508;2023-04-29T03:49:51;99188.34;;;4.31;100.00
36600;BME280;35385;55.668;37.508;2023-04-29T03:50:52;99174.41;;;4.41;100.00
36600;BME280;35385;55.668;37.508;2023-04-29T03:51:53;99181.91;;;4.47;100.00
36600;BME280;35385;55.668;37.508;2023-04-29T03:52:54;99173.75;;;4.38;100.00
36600;BME280;35385;55.668;37.508;2023-04-29T03:53:54;99170.44;;;4.34;100.00
36600;BME280;35385;55.668;37.508;2023-04-29T03:54:57;99160.94;;;4.32;100.00
36600;BME280;35385;55.668;37.508;2023-04-29T03:55:57;99165.28;;;4.18;100.00
36600;BME280;35385;55.668;37.508;2023-04-29T03:56:58;99178.13;;;4.24;100.00
36600;BME280;35385;55.668;37.508;2023-04-29T03:57:59;99174.63;;;4.24;100.00
36600;BME280;35385;55.668;37.508;2023-04-29T03:59:00;99172.41;;;4.18;100.00
36600;BME280;35385;55.668;37.508;2023-04-29T04:00:00;99122.63;;;3.83;100.00
36600;BME280;35385;55.668;37.508;2023-04-29T04:01:01;99173.16;;;4.06;100.00
36600;BME280;35385;55.668;37.508;2023-04-29T04:02:02;99097.00;;;3.71;100.00
36600;BME280;35385;55.668;37.508;2023-04-29T04:03:02;99178.97;;;4.25;100.00
36600;BME280;35385;55.668;37.508;2023-04-29T04:04:03;99140.81;;;4.02;100.00
36600;BME280;35385;55.668;37.508;2023-04-29T04:05:04;99180.88;;;4.23;100.00
36600;BME280;35385;55.668;37.508;2023-04-29T04:06:05;99179.59;;;4.16;100.00
36600;BME280;35385;55.668;37.508;2023-04-29T04:07:05;99144.31;;;4.03;100.00
36600;BME280;35385;55.668;37.508;2023-04-29T04:08:06;99153.91;;;4.18;100.00
36600;BME280;35385;55.668;37.508;2023-04-29T04:09:06;99186.50;;;4.45;100.00
36600;BME280;35385;55.668;37.508;2023-04-29T04:10:07;99130.03;;;4.05;100.00
36600;BME280;35385;55.668;37.508;2023-04-29T04:11:08;99183.03;;;4.31;100.00
36600;BME280;35385;55.668;37.508;2023-04-29T04:12:08;99179.59;;;4.16;100.00
36600;BME280;35385;55.668;37.508;2023-04-29T04:13:09;99142.84;;;3.84;100.00
36600;BME280;35385;55.668;37.508;2023-04-29T04:14:10;99174.31;;;4.16;100.00
36600;BME280;35385;55.668;37.508;2023-04-29T04:15:10;99143.22;;;3.78;100.00
36600;BME280;35385;55.668;37.508;2023-04-29T04:16:11;99117.81;;;3.76;100.00
36600;BME280;35385;55.668;37.508;2023-04-29T04:17:12;99197.31;;;4.28;100.00
36600;BME280;35385;55.668;37.508;2023-04-29T04:18:12;99191.25;;;4.26;100.00
36600;BME280;35385;55.668;37.508;2023-04-29T04:19:13;99178.97;;;4.25;100.00
36600;BME280;35385;55.668;37.508;2023-04-29T04:20:14;99185.38;;;4.35;100.00
36600;BME280;35385;55.668;37.508;2023-04-29T04:21:15;99195.44;;;4.16;100.00
36600;BME280;35385;55.668;37.508;2023-04-29T04:22:15;99076.94;;;3.54;100.00
36600;BME280;35385;55.668;37.508;2023-04-29T04:23:16;99187.56;;;4.29;100.00
36600;BME280;35385;55.668;37.508;2023-04-29T04:24:17;99198.81;;;4.32;100.00
36600;BME280;35385;55.668;37.508;2023-04-29T04:25:17;99182.38;;;4.27;100.00
36600;BME280;35385;55.668;37.508;2023-04-29T04:26:18;99188.41;;;4.29;100.00
36600;BME280;35385;55.668;37.508;2023-04-29T04:27:19;99195.09;;;4.35;100.00
36600;BME280;35385;55.668;37.508;2023-04-29T04:28:20;99198.50;;;4.37;100.00
36600;BME280;35385;55.668;37.508;2023-04-29T04:29:21;99200.84;;;4.41;100.00
36600;BME280;35385;55.668;37.508;2023-04-29T04:30:21;99194.06;;;4.37;100.00
36600;BME280;35385;55.668;37.508;2023-04-29T04:31:22;99195.75;;;4.38;100.00
36600;BME280;35385;55.668;37.508;2023-04-29T04:32:22;99188.75;;;4.37;100.00
36600;BME280;35385;55.668;37.508;2023-04-29T04:33:24;99187.25;;;4.33;100.00
36600;BME280;35385;55.668;37.508;2023-04-29T04:34:24;99196.59;;;4.39;100.00
36600;BME280;35385;55.668;37.508;2023-04-29T04:35:25;99145.22;;;4.16;100.00
36600;BME280;35385;55.668;37.508;2023-04-29T04:36:26;99130.22;;;4.16;100.00
36600;BME280;35385;55.668;37.508;2023-04-29T04:37:26;99181.53;;;4.53;100.00
36600;BME280;35385;55.668;37.508;2023-04-29T04:38:27;99174.88;;;4.34;100.00
36600;BME280;35385;55.668;37.508;2023-04-29T04:39:28;99130.31;;;4.15;100.00
36600;BME280;35385;55.668;37.508;2023-04-29T04:40:29;99118.50;;;4.06;100.00
36600;BME280;35385;55.668;37.508;2023-04-29T04:41:29;99182.69;;;4.49;100.00
36600;BME280;35385;55.668;37.508;2023-04-29T04:42:32;99181.63;;;4.52;100.00
36600;BME280;35385;55.668;37.508;2023-04-29T04:43:33;99168.41;;;4.52;100.00
36600;BME280;35385;55.668;37.508;2023-04-29T04:44:34;99116.66;;;4.21;100.00
36600;BME280;35385;55.668;37.508;2023-04-29T04:45:34;99177.09;;;4.54;100.00
36600;BME280;35385;55.668;37.508;2023-04-29T04:46:35;99160.63;;;4.36;100.00
36600;BME280;35385;55.668;37.508;2023-04-29T04:47:36;99171.72;;;4.55;100.00
36600;BME280;35385;55.668;37.508;2023-04-29T04:48:40;99184.19;;;4.53;100.00
36600;BME280;35385;55.668;37.508;2023-04-29T04:49:41;98972.53;;;3.08;100.00
36600;BME280;35385;55.668;37.508;2023-04-29T04:50:41;99168.59;;;4.49;100.00
36600;BME280;35385;55.668;37.508;2023-04-29T04:51:45;99181.78;;;4.63;100.00
36600;BME280;35385;55.668;37.508;2023-04-29T04:52:46;99184.31;;;4.65;100.00
36600;BME280;35385;55.668;37.508;2023-04-29T04:53:47;99186.75;;;4.68;100.00
36600;BME280;35385;55.668;37.508;2023-04-29T04:54:47;99121.22;;;4.19;100.00
36600;BME280;35385;55.668;37.508;2023-04-29T04:55:48;99185.97;;;4.53;100.00
36600;BME280;35385;55.668;37.508;2023-04-29T04:56:49;99169.91;;;4.29;100.00
36600;BME280;35385;55.668;37.508;2023-04-29T04:57:51;99172.16;;;4.35;100.00
36600;BME280;35385;55.668;37.508;2023-04-29T04:58:51;99165.97;;;4.49;100.00
36600;BME280;35385;55.668;37.508;2023-04-29T04:59:58;99160.66;;;4.49;100.00
36600;BME280;35385;55.668;37.508;2023-04-29T05:00:59;99149.66;;;4.42;100.00
36600;BME280;35385;55.668;37.508;2023-04-29T05:02:03;99196.50;;;4.67;100.00
36600;BME280;35385;55.668;37.508;2023-04-29T05:03:03;99195.25;;;4.73;100.00
36600;BME280;35385;55.668;37.508;2023-04-29T05:04:04;99182.56;;;4.78;100.00
36600;BME280;35385;55.668;37.508;2023-04-29T05:05:05;99189.25;;;4.83;100.00
36600;BME280;35385;55.668;37.508;2023-04-29T05:06:05;99170.81;;;4.82;100.00
36600;BME280;35385;55.668;37.508;2023-04-29T05:07:06;99194.56;;;4.96;100.00
36600;BME280;35385;55.668;37.508;2023-04-29T05:08:07;99189.34;;;4.82;100.00
36600;BME280;35385;55.668;37.508;2023-04-29T05:09:07;99192.94;;;4.81;100.00
36600;BME280;35385;55.668;37.508;2023-04-29T05:10:08;99206.44;;;4.90;100.00
36600;BME280;35385;55.668;37.508;2023-04-29T05:11:19;99199.47;;;5.02;100.00
36600;BME280;35385;55.668;37.508;2023-04-29T05:12:20;99179.81;;;4.79;100.00
36600;BME280;35385;55.668;37.508;2023-04-29T05:13:21;99180.47;;;4.83;100.00
36600;BME280;35385;55.668;37.508;2023-04-29T05:14:21;99189.91;;;4.87;100.00
36600;BME280;35385;55.668;37.508;2023-04-29T05:15:22;99178.72;;;4.69;100.00
36600;BME280;35385;55.668;37.508;2023-04-29T05:16:25;99184.06;;;4.82;100.00
36600;BME280;35385;55.668;37.508;2023-04-29T05:17:26;99181.59;;;4.79;100.00
36600;BME280;35385;55.668;37.508;2023-04-29T05:18:26;99116.03;;;4.44;100.00
36600;BME280;35385;55.668;37.508;2023-04-29T05:19:27;99165.53;;;4.42;100.00
36600;BME280;35385;55.668;37.508;2023-04-29T05:20:28;99173.41;;;4.56;100.00
36600;BME280;35385;55.668;37.508;2023-04-29T05:21:28;99180.91;;;4.62;100.00
36600;BME280;35385;55.668;37.508;2023-04-29T05:22:29;99188.50;;;4.81;100.00
36600;BME280;35385;55.668;37.508;2023-04-29T05:23:30;99131.34;;;4.39;100.00
36600;BME280;35385;55.668;37.508;2023-04-29T05:24:30;99196.16;;;4.98;100.00
36600;BME280;35385;55.668;37.508;2023-04-29T05:25:32;99178.13;;;4.91;100.00
36600;BME280;35385;55.668;37.508;2023-04-29T05:26:32;99197.78;;;5.01;100.00
36600;BME280;35385;55.668;37.508;2023-04-29T05:27:33;99189.81;;;5.01;100.00
36600;BME280;35385;55.668;37.508;2023-04-29T05:28:33;99185.94;;;5.19;100.00
36600;BME280;35385;55.668;37.508;2023-04-29T05:29:34;99202.06;;;5.42;100.00
36600;BME280;35385;55.668;37.508;2023-04-29T05:30:35;99182.75;;;5.40;100.00
36600;BME280;35385;55.668;37.508;2023-04-29T05:31:37;99185.22;;;5.43;100.00
36600;BME280;35385;55.668;37.508;2023-04-29T05:32:40;99175.03;;;5.37;100.00
36600;BME280;35385;55.668;37.508;2023-04-29T05:33:41;99199.41;;;5.42;100.00